createdAt,value
2018-05-06T00:00:08.477Z,30.87
2018-05-06T00:02:36.055Z,32.03
2018-05-06T00:05:03.676Z,29.83
2018-05-06T00:07:32.018Z,29.30
2018-05-06T00:09:59.585Z,27.47
2018-05-06T00:12:27.201Z,27.60
2018-05-06T00:14:54.767Z,28.23
2018-05-06T00:17:22.340Z,26.80
2018-05-06T00:19:49.950Z,27.97
2018-05-06T00:22:18.289Z,27.57
2018-05-06T00:24:45.913Z,28.07
2018-05-06T00:27:13.480Z,25.83
2018-05-06T00:29:41.087Z,25.47
2018-05-06T00:32:08.648Z,27.20
2018-05-06T00:34:36.306Z,26.47
2018-05-06T00:37:03.860Z,25.27
2018-05-06T00:39:31.426Z,23.93
2018-05-06T00:41:59.037Z,24.07
2018-05-06T00:44:26.596Z,24.97
2018-05-06T00:46:54.337Z,20.93
2018-05-06T00:49:21.908Z,20.37
2018-05-06T00:51:50.274Z,19.57
2018-05-06T00:54:29.591Z,19.10
2018-05-06T00:56:57.157Z,17.57
2018-05-06T00:59:24.761Z,18.07
2018-05-06T01:01:52.326Z,16.97
2018-05-06T01:04:19.925Z,18.10
2018-05-06T01:06:47.525Z,17.20
2018-05-06T01:09:15.861Z,18.13
2018-05-06T01:11:43.456Z,19.43
2018-05-06T01:14:11.036Z,18.10
2018-05-06T01:16:38.640Z,20.90
2018-05-06T01:19:06.198Z,20.67
2018-05-06T01:21:33.797Z,21.00
2018-05-06T01:24:01.383Z,21.27
2018-05-06T01:26:29.748Z,21.93
2018-05-06T01:28:58.114Z,23.70
2018-05-06T01:31:25.694Z,25.13
2018-05-06T01:33:53.296Z,25.17
2018-05-06T01:36:20.910Z,25.93
2018-05-06T01:38:48.530Z,24.67
2018-05-06T01:41:16.089Z,25.03
2018-05-06T01:43:43.824Z,23.87
2018-05-06T01:46:11.429Z,25.07
2018-05-06T01:48:38.992Z,24.97
2018-05-06T01:51:06.597Z,26.90
2018-05-06T01:53:34.156Z,25.87
2018-05-06T01:56:01.759Z,25.07
2018-05-06T01:58:29.353Z,26.93
2018-05-06T02:00:56.952Z,26.53
2018-05-06T02:03:24.514Z,25.57
2018-05-06T02:05:52.116Z,27.10
2018-05-06T02:08:19.724Z,28.00
2018-05-06T02:10:47.288Z,28.37
2018-05-06T02:13:14.905Z,29.90
2018-05-06T02:15:42.473Z,28.90
2018-05-06T02:18:10.041Z,29.50
2018-05-06T02:20:37.662Z,31.90
2018-05-06T02:23:05.224Z,31.33
2018-05-06T02:25:32.795Z,30.87
2018-05-06T02:28:00.405Z,32.13
2018-05-06T02:30:27.976Z,34.53
2018-05-06T02:32:55.593Z,32.93
2018-05-06T02:35:23.150Z,33.63
2018-05-06T02:37:50.709Z,33.77
2018-05-06T02:40:18.308Z,33.00
2018-05-06T02:42:45.918Z,32.93
2018-05-06T02:45:13.502Z,34.60
2018-05-06T02:47:41.072Z,32.60
2018-05-06T02:50:08.674Z,31.80
2018-05-06T02:52:36.242Z,33.10
2018-05-06T02:55:03.814Z,30.97
2018-05-06T02:57:31.405Z,31.27
2018-05-06T02:59:59.000Z,30.33
2018-05-06T03:02:27.342Z,30.50
2018-05-06T03:04:54.944Z,30.30
2018-05-06T03:07:22.551Z,28.80
2018-05-06T03:09:50.160Z,28.27
2018-05-06T03:12:17.782Z,27.73
2018-05-06T03:14:45.353Z,25.73
2018-05-06T03:17:12.923Z,22.33
2018-05-06T03:19:40.537Z,21.13
2018-05-06T03:22:08.146Z,18.77
2018-05-06T03:24:35.704Z,18.17
2018-05-06T03:27:03.307Z,17.17
2018-05-06T03:29:30.875Z,17.37
2018-05-06T03:31:58.471Z,17.90
2018-05-06T03:34:26.032Z,18.43
2018-05-06T03:36:53.642Z,18.63
2018-05-06T03:39:21.281Z,18.30
2018-05-06T03:41:49.647Z,17.57
2018-05-06T03:44:18.036Z,16.50
2018-05-06T03:46:47.509Z,16.83
2018-05-06T03:49:15.088Z,17.33
2018-05-06T03:51:42.697Z,16.73
2018-05-06T03:54:10.314Z,16.30
2018-05-06T03:59:50.226Z,17.23
2018-05-06T04:05:17.228Z,18.27
2018-05-06T04:07:45.603Z,18.17
2018-05-06T04:10:13.223Z,17.43
2018-05-06T04:12:40.788Z,17.13
2018-05-06T04:15:08.344Z,18.40
2018-05-06T04:17:35.944Z,17.03
2018-05-06T04:20:03.539Z,17.83
2018-05-06T04:22:31.165Z,18.60
2018-05-06T04:24:58.727Z,18.93
2018-05-06T04:27:27.060Z,18.63
2018-05-06T04:29:54.670Z,19.30
2018-05-06T04:32:23.004Z,21.73
2018-05-06T04:34:50.630Z,20.83
2018-05-06T04:37:18.237Z,21.97
2018-05-06T04:39:45.804Z,26.90
2018-05-06T04:42:13.363Z,26.33
2018-05-06T04:44:40.969Z,27.70
2018-05-06T04:47:08.641Z,28.77
2018-05-06T04:49:36.205Z,32.27
2018-05-06T04:52:03.776Z,32.67
2018-05-06T04:54:31.371Z,34.20
2018-05-06T04:56:58.932Z,33.70
2018-05-06T04:59:26.533Z,33.00
2018-05-06T05:01:54.097Z,33.97
2018-05-06T05:04:21.702Z,31.77
2018-05-06T05:06:49.309Z,30.07
2018-05-06T05:09:16.877Z,31.23
2018-05-06T05:11:44.496Z,28.57
2018-05-06T05:14:12.833Z,27.63
2018-05-06T05:16:40.400Z,27.20
2018-05-06T05:19:07.999Z,25.53
2018-05-06T05:21:36.328Z,25.13
2018-05-06T05:24:03.932Z,22.97
2018-05-06T05:26:32.264Z,23.00
2018-05-06T05:28:59.823Z,21.87
2018-05-06T05:31:27.425Z,19.97
2018-05-06T05:33:55.804Z,19.90
2018-05-06T05:36:24.132Z,18.50
2018-05-06T05:38:51.705Z,18.33
2018-05-06T05:41:19.314Z,17.43
2018-05-06T05:43:47.649Z,19.17
2018-05-06T05:46:15.204Z,18.13
2018-05-06T05:48:42.803Z,17.63
2018-05-06T05:51:11.142Z,19.83
2018-05-06T05:53:38.752Z,21.30
2018-05-06T05:56:07.120Z,21.93
2018-05-06T05:58:35.488Z,25.10
2018-05-06T06:01:03.823Z,23.73
2018-05-06T06:03:31.440Z,24.27
2018-05-06T06:05:59.799Z,22.23
2018-05-06T06:08:28.172Z,20.40
2018-05-06T06:10:55.732Z,18.87
2018-05-06T06:13:24.139Z,18.73
2018-05-06T06:15:51.705Z,16.60
2018-05-06T06:18:19.274Z,16.80
2018-05-06T06:20:46.882Z,17.70
2018-05-06T06:23:14.488Z,15.77
2018-05-06T06:25:42.100Z,17.07
2018-05-06T06:28:09.663Z,19.27
2018-05-06T06:30:37.272Z,21.83
2018-05-06T06:33:04.853Z,21.70
2018-05-06T06:35:32.472Z,20.87
2018-05-06T06:38:00.037Z,18.80
2018-05-06T06:40:27.647Z,18.93
2018-05-06T06:42:55.218Z,16.50
2018-05-06T06:45:22.819Z,15.87
2018-05-06T06:47:50.393Z,14.13
2018-05-06T06:50:18.008Z,14.20
2018-05-06T06:52:46.356Z,14.30
2018-05-06T06:55:13.955Z,14.40
2018-05-06T06:57:41.564Z,13.80
2018-05-06T07:00:09.124Z,13.40
2018-05-06T07:02:36.829Z,12.60
2018-05-06T07:05:05.156Z,13.40
2018-05-06T07:07:32.720Z,12.83
2018-05-06T07:10:00.331Z,12.90
2018-05-06T07:12:28.656Z,14.47
2018-05-06T07:14:56.226Z,13.97
2018-05-06T07:17:23.833Z,16.40
2018-05-06T07:19:52.159Z,15.77
2018-05-06T07:22:19.755Z,18.93
2018-05-06T07:24:48.131Z,19.77
2018-05-06T07:27:16.468Z,19.93
2018-05-06T07:29:44.068Z,19.33
2018-05-06T07:32:12.437Z,18.73
2018-05-06T07:34:40.042Z,18.23
2018-05-06T07:37:07.622Z,17.53
2018-05-06T07:39:35.235Z,15.17
2018-05-06T07:42:03.613Z,13.37
2018-05-06T07:44:31.956Z,13.03
2018-05-06T07:47:00.288Z,13.27
2018-05-06T07:49:27.899Z,13.40
2018-05-06T07:51:55.463Z,16.60
2018-05-06T07:54:23.045Z,19.93
2018-05-06T07:56:51.438Z,23.40
2018-05-06T07:59:19.005Z,26.87
2018-05-06T08:01:46.604Z,25.00
2018-05-06T08:04:14.176Z,23.63
2018-05-06T08:06:42.017Z,20.70
2018-05-06T08:09:09.602Z,19.73
2018-05-06T08:11:37.222Z,18.53
2018-05-06T08:14:04.796Z,15.50
2018-05-06T08:16:32.463Z,15.70
2018-05-06T08:18:59.994Z,12.77
2018-05-06T08:21:27.629Z,12.43
2018-05-06T08:23:55.959Z,12.20
2018-05-06T08:26:23.524Z,12.97
2018-05-06T08:28:51.135Z,14.63
2018-05-06T08:31:18.695Z,17.37
2018-05-06T08:33:46.259Z,19.23
2018-05-06T08:36:13.863Z,20.03
2018-05-06T08:38:41.470Z,21.20
2018-05-06T08:41:09.805Z,20.27
2018-05-06T08:43:37.409Z,20.30
2018-05-06T08:46:05.020Z,19.43
2018-05-06T08:48:32.589Z,19.73
2018-05-06T08:51:00.200Z,18.80
2018-05-06T08:53:27.760Z,18.73
2018-05-06T08:55:55.373Z,18.70
2018-05-06T08:58:22.941Z,17.37
2018-05-06T09:00:50.499Z,16.33
2018-05-06T09:03:18.103Z,16.57
2018-05-06T09:05:45.716Z,14.50
2018-05-06T09:08:13.297Z,14.47
2018-05-06T09:10:41.713Z,13.67
2018-05-06T09:13:09.281Z,12.53
2018-05-06T09:15:36.852Z,11.63
2018-05-06T09:18:04.462Z,11.10
2018-05-06T09:20:32.045Z,10.77
2018-05-06T09:22:59.688Z,10.67
2018-05-06T09:25:27.267Z,11.10
2018-05-06T09:27:54.855Z,10.83
2018-05-06T09:30:22.481Z,11.43
2018-05-06T09:32:50.052Z,10.97
2018-05-06T09:35:17.647Z,11.67
2018-05-06T09:37:45.289Z,13.00
2018-05-06T09:40:12.841Z,13.10
2018-05-06T09:42:40.465Z,12.37
2018-05-06T09:45:08.033Z,13.50
2018-05-06T09:47:35.675Z,14.53
2018-05-06T09:50:03.271Z,14.77
2018-05-06T09:52:30.880Z,14.03
2018-05-06T09:54:59.223Z,13.87
2018-05-06T09:57:27.606Z,13.83
2018-05-06T09:59:55.216Z,13.67
2018-05-06T10:02:22.784Z,13.00
2018-05-06T10:04:50.391Z,13.47
2018-05-06T10:07:20.079Z,12.33
2018-05-06T10:09:47.671Z,11.93
2018-05-06T10:12:15.253Z,11.90
2018-05-06T10:14:43.619Z,11.90
2018-05-06T10:17:14.157Z,11.70
2018-05-06T10:19:42.576Z,11.40
2018-05-06T10:22:12.589Z,11.80
2018-05-06T10:24:43.124Z,11.97
2018-05-06T10:27:10.698Z,11.83
2018-05-06T10:29:38.343Z,12.57
2018-05-06T10:32:05.933Z,12.57
2018-05-06T10:34:33.566Z,12.00
2018-05-06T10:37:01.160Z,13.43
2018-05-06T10:39:29.534Z,11.90
2018-05-06T10:41:57.183Z,11.93
2018-05-06T10:44:24.854Z,13.83
2018-05-06T10:46:52.438Z,14.37
2018-05-06T10:49:20.368Z,14.83
2018-05-06T10:51:48.939Z,15.63
2018-05-06T10:54:17.170Z,15.57
2018-05-06T10:56:44.813Z,15.33
2018-05-06T10:59:15.101Z,16.13
2018-05-06T11:01:43.795Z,17.07
2018-05-06T11:04:12.160Z,16.33
2018-05-06T11:06:39.765Z,18.40
2018-05-06T11:09:08.100Z,17.63
2018-05-06T11:11:35.708Z,18.43
2018-05-06T11:14:04.137Z,18.57
2018-05-06T11:16:31.831Z,18.03
2018-05-06T11:19:00.174Z,19.17
2018-05-06T11:21:27.748Z,17.73
2018-05-06T11:23:55.351Z,18.07
2018-05-06T11:26:22.991Z,16.90
2018-05-06T11:28:50.655Z,17.07
2018-05-06T11:31:18.993Z,16.40
2018-05-06T11:33:46.642Z,16.30
2018-05-06T11:36:14.224Z,15.93
2018-05-06T11:38:41.819Z,15.60
2018-05-06T11:41:10.190Z,14.90
2018-05-06T11:43:38.531Z,15.73
2018-05-06T11:46:06.133Z,15.17
2018-05-06T11:48:34.464Z,16.90
2018-05-06T11:51:02.072Z,16.17
2018-05-06T11:53:29.671Z,17.60
2018-05-06T11:55:57.285Z,18.10
2018-05-06T11:58:25.619Z,17.30
2018-05-06T12:00:53.421Z,17.83
2018-05-06T12:03:21.169Z,18.60
2018-05-06T12:05:48.749Z,19.20
2018-05-06T12:08:17.121Z,19.93
2018-05-06T12:10:45.451Z,20.37
2018-05-06T12:13:13.068Z,20.97
2018-05-06T12:15:41.395Z,21.40
2018-05-06T12:18:08.955Z,20.93
2018-05-06T12:20:36.570Z,21.37
2018-05-06T12:23:04.896Z,21.53
2018-05-06T12:25:32.509Z,21.53
2018-05-06T12:28:00.076Z,22.13
2018-05-06T12:30:27.684Z,22.97
2018-05-06T12:32:55.298Z,22.50
2018-05-06T12:35:23.150Z,21.40
2018-05-06T12:37:50.745Z,22.90
2018-05-06T12:40:18.496Z,22.87
2018-05-06T12:42:46.180Z,23.73
2018-05-06T12:45:13.827Z,22.50
2018-05-06T12:47:41.493Z,23.93
2018-05-06T12:50:09.051Z,23.87
2018-05-06T12:52:36.667Z,23.53
2018-05-06T12:55:04.998Z,24.13
2018-05-06T12:57:32.609Z,24.13
2018-05-06T13:00:00.984Z,24.90
2018-05-06T13:02:29.308Z,26.70
2018-05-06T13:04:57.029Z,26.43
2018-05-06T13:07:25.407Z,25.77
2018-05-06T13:09:53.772Z,26.27
2018-05-06T13:12:22.103Z,26.87
2018-05-06T13:14:49.711Z,25.70
2018-05-06T13:17:18.113Z,26.17
2018-05-06T13:19:45.758Z,26.10
2018-05-06T13:22:13.339Z,26.80
2018-05-06T13:24:40.940Z,26.87
2018-05-06T13:27:08.512Z,27.20
2018-05-06T13:29:36.122Z,27.47
2018-05-06T13:32:03.996Z,26.93
2018-05-06T13:34:33.466Z,27.83
2018-05-06T13:37:01.851Z,28.80
2018-05-06T13:39:29.420Z,30.60
2018-05-06T13:41:57.025Z,32.03
2018-05-06T13:44:24.596Z,30.70
2018-05-06T13:46:52.204Z,29.93
2018-05-06T13:49:19.769Z,30.30
2018-05-06T13:51:47.375Z,31.53
2018-05-06T13:54:14.939Z,31.37
2018-05-06T13:56:42.644Z,31.23
2018-05-06T13:59:10.207Z,32.07
2018-05-06T14:01:37.816Z,32.23
2018-05-06T14:04:05.452Z,33.23
2018-05-06T14:06:33.025Z,33.40
2018-05-06T14:09:01.365Z,34.30
2018-05-06T14:11:28.973Z,33.20
2018-05-06T14:13:56.548Z,33.60
2018-05-06T14:16:24.933Z,34.93
2018-05-06T14:18:53.268Z,34.63
2018-05-06T14:21:21.055Z,36.07
2018-05-06T14:23:49.399Z,36.20
2018-05-06T14:26:17.015Z,36.17
2018-05-06T14:28:45.401Z,34.80
2018-05-06T14:31:13.012Z,36.80
2018-05-06T14:33:40.600Z,36.50
2018-05-06T14:36:08.977Z,37.37
2018-05-06T14:38:37.316Z,36.57
2018-05-06T14:41:05.105Z,36.97
2018-05-06T14:43:32.791Z,36.63
2018-05-06T14:46:01.121Z,37.50
2018-05-06T14:48:28.788Z,38.57
2018-05-06T14:50:56.323Z,40.00
2018-05-06T14:53:23.937Z,39.43
2018-05-06T14:55:52.347Z,40.77
2018-05-06T14:58:19.865Z,41.40
2018-05-06T15:00:48.259Z,41.43
2018-05-06T15:03:16.594Z,42.27
2018-05-06T15:05:44.203Z,41.17
2018-05-06T15:08:11.816Z,43.53
2018-05-06T15:10:39.537Z,44.57
2018-05-06T15:13:07.092Z,43.93
2018-05-06T15:15:34.666Z,44.20
2018-05-06T15:18:05.307Z,45.30
2018-05-06T15:20:32.872Z,46.03
2018-05-06T15:23:00.435Z,46.30
2018-05-06T15:25:28.059Z,45.50
2018-05-06T15:27:55.632Z,45.13
2018-05-06T15:30:23.239Z,46.20
2018-05-06T15:32:50.857Z,47.17
2018-05-06T15:35:18.424Z,48.80
2018-05-06T15:37:45.989Z,47.73
2018-05-06T15:40:13.650Z,46.13
2018-05-06T15:42:41.275Z,47.13
2018-05-06T15:45:09.977Z,48.03
2018-05-06T15:47:37.546Z,46.67
2018-05-06T15:50:05.127Z,46.27
2018-05-06T15:52:32.732Z,47.50
2018-05-06T15:55:00.342Z,46.13
2018-05-06T15:57:27.909Z,47.73
2018-05-06T15:59:55.823Z,46.87
2018-05-06T16:05:35.188Z,48.00
2018-05-06T16:08:02.793Z,47.27
2018-05-06T16:10:30.374Z,45.77
2018-05-06T16:12:58.768Z,44.37
2018-05-06T16:15:26.336Z,43.23
2018-05-06T16:17:53.948Z,42.30
2018-05-06T16:20:21.519Z,42.60
2018-05-06T16:22:49.101Z,43.27
2018-05-06T16:25:16.802Z,44.00
2018-05-06T16:27:44.412Z,43.20
2018-05-06T16:30:13.066Z,43.03
2018-05-06T16:32:41.447Z,43.47
2018-05-06T16:35:09.116Z,46.30
2018-05-06T16:37:37.720Z,46.70
2018-05-06T16:40:06.149Z,47.47
2018-05-06T16:42:33.758Z,47.10
2018-05-06T16:45:02.103Z,45.73
2018-05-06T16:47:29.724Z,44.60
2018-05-06T16:49:57.322Z,43.87
2018-05-06T16:52:24.900Z,43.50
2018-05-06T16:54:52.506Z,44.80
2018-05-06T16:57:20.095Z,44.93
2018-05-06T16:59:47.713Z,44.83
2018-05-06T17:02:15.271Z,47.97
2018-05-06T17:04:42.883Z,46.90
2018-05-06T17:07:10.487Z,48.77
2018-05-06T17:09:39.731Z,48.57
2018-05-06T17:12:07.633Z,48.97
2018-05-06T17:14:35.970Z,48.80
2018-05-06T17:17:03.592Z,49.43
2018-05-06T17:19:31.198Z,49.07
2018-05-06T17:21:58.791Z,51.10
2018-05-06T17:24:27.156Z,50.97
2018-05-06T17:26:54.721Z,51.33
2018-05-06T17:29:22.338Z,52.77
2018-05-06T17:31:49.949Z,52.97
2018-05-06T17:34:18.289Z,52.87
2018-05-06T17:36:45.863Z,53.37
2018-05-06T17:39:13.474Z,52.33
2018-05-06T17:41:41.808Z,49.80
2018-05-06T17:44:09.429Z,50.93
2018-05-06T17:46:37.019Z,50.23
2018-05-06T17:49:05.473Z,50.00
2018-05-06T17:51:33.093Z,50.43
2018-05-06T17:54:01.478Z,50.83
2018-05-06T17:56:29.053Z,49.77
2018-05-06T17:58:56.659Z,50.40
2018-05-06T18:01:24.232Z,51.37
2018-05-06T18:03:52.619Z,50.73
2018-05-06T18:06:20.976Z,50.83
2018-05-06T18:08:48.584Z,50.30
2018-05-06T18:11:17.458Z,50.60
2018-05-06T18:13:45.516Z,50.40
2018-05-06T18:16:13.567Z,51.63
2018-05-06T18:18:41.273Z,51.80
2018-05-06T18:21:08.877Z,48.97
2018-05-06T18:23:36.452Z,49.43
2018-05-06T18:26:04.066Z,48.50
2018-05-06T18:28:31.648Z,48.00
2018-05-06T18:30:59.257Z,48.10
2018-05-06T18:33:27.593Z,48.67
2018-05-06T18:35:55.206Z,45.37
2018-05-06T18:38:22.775Z,46.93
2018-05-06T18:40:50.380Z,43.57
2018-05-06T18:43:18.000Z,45.30
2018-05-06T18:45:45.573Z,41.50
2018-05-06T18:48:13.179Z,39.80
2018-05-06T18:50:41.517Z,38.73
2018-05-06T18:53:09.129Z,39.60
2018-05-06T18:55:36.696Z,41.00
2018-05-06T18:58:04.264Z,41.97
2018-05-06T19:00:31.877Z,38.93
2018-05-06T19:02:59.494Z,38.57
2018-05-06T19:05:27.085Z,36.13
2018-05-06T19:07:55.494Z,31.00
2018-05-06T19:10:23.831Z,30.60
2018-05-06T19:12:51.435Z,31.47
2018-05-06T19:15:19.794Z,31.90
2018-05-06T19:17:47.400Z,32.87
2018-05-06T19:20:14.973Z,33.87
2018-05-06T19:22:42.573Z,33.77
2018-05-06T19:25:10.144Z,32.17
2018-05-06T19:27:38.514Z,29.27
2018-05-06T19:30:06.860Z,27.10
2018-05-06T19:32:34.526Z,28.23
2018-05-06T19:35:02.056Z,26.90
2018-05-06T19:37:29.654Z,25.70
2018-05-06T19:39:57.252Z,27.37
2018-05-06T19:42:24.993Z,27.40
2018-05-06T19:44:52.554Z,29.30
2018-05-06T19:47:20.921Z,29.77
2018-05-06T19:49:48.488Z,29.67
2018-05-06T19:52:16.091Z,29.83
2018-05-06T19:54:43.707Z,30.70
2018-05-06T19:57:11.270Z,30.37
2018-05-06T19:59:39.701Z,31.43
2018-05-06T20:02:07.307Z,31.70
2018-05-06T20:04:35.645Z,31.37
2018-05-06T20:07:03.252Z,31.80
2018-05-06T20:09:31.596Z,32.40
2018-05-06T20:11:59.220Z,33.03
2018-05-06T20:14:26.808Z,29.90
2018-05-06T20:16:54.418Z,27.60
2018-05-06T20:19:22.752Z,24.77
2018-05-06T20:21:50.389Z,19.40
2018-05-06T20:24:17.992Z,16.83
2018-05-06T20:26:45.565Z,17.27
2018-05-06T20:29:13.936Z,16.80
2018-05-06T20:31:43.392Z,17.83
2018-05-06T20:34:11.004Z,17.60
2018-05-06T20:36:39.332Z,17.73
2018-05-06T20:39:07.051Z,19.07
2018-05-06T20:41:35.534Z,21.30
2018-05-06T20:44:03.172Z,23.40
2018-05-06T20:46:30.741Z,24.37
2018-05-06T20:49:08.191Z,26.00
2018-05-06T20:51:35.761Z,29.50
2018-05-06T20:54:03.363Z,30.23
2018-05-06T20:56:30.939Z,31.93
2018-05-06T20:59:00.408Z,34.30
2018-05-06T21:01:27.973Z,35.03
2018-05-06T21:03:55.768Z,34.63
2018-05-06T21:06:24.687Z,34.80
2018-05-06T21:08:52.252Z,35.00
2018-05-06T21:11:20.276Z,35.73
2018-05-06T21:13:52.175Z,35.43
2018-05-06T21:16:19.856Z,35.33
2018-05-06T21:18:47.519Z,35.63
2018-05-06T21:21:15.436Z,36.13
2018-05-06T21:23:43.872Z,35.67
2018-05-06T21:26:11.444Z,36.20
2018-05-06T21:28:39.821Z,38.80
2018-05-06T21:31:07.448Z,37.40
2018-05-06T21:33:35.227Z,36.13
2018-05-06T21:36:03.642Z,35.17
2018-05-06T21:38:31.522Z,33.87
2018-05-06T21:40:59.924Z,31.67
2018-05-06T21:43:28.366Z,28.57
2018-05-06T21:45:55.875Z,25.87
2018-05-06T21:48:23.480Z,22.83
2018-05-06T21:50:51.051Z,20.63
2018-05-06T21:53:18.675Z,17.30
2018-05-06T21:55:46.257Z,14.53
2018-05-06T21:58:13.869Z,15.20
2018-05-06T22:00:42.230Z,13.70
2018-05-06T22:03:10.576Z,14.20
2018-05-06T22:05:38.197Z,14.67
2018-05-06T22:08:05.790Z,14.10
2018-05-06T22:10:33.360Z,15.43
2018-05-06T22:13:05.892Z,15.73
2018-05-06T22:15:33.508Z,17.73
2018-05-06T22:18:01.879Z,18.80
2018-05-06T22:20:29.452Z,18.70
2018-05-06T22:22:57.853Z,20.47
2018-05-06T22:25:25.426Z,21.63
2018-05-06T22:27:53.000Z,22.17
2018-05-06T22:30:20.609Z,21.87
2018-05-06T22:32:48.983Z,22.73
2018-05-06T22:35:17.315Z,21.60
2018-05-06T22:37:44.915Z,21.23
2018-05-06T22:40:12.483Z,20.87
2018-05-06T22:42:40.861Z,20.60
2018-05-06T22:45:09.204Z,20.10
2018-05-06T22:47:36.811Z,18.50
2018-05-06T22:50:04.422Z,18.03
2018-05-06T22:52:31.987Z,18.47
2018-05-06T22:54:59.598Z,16.90
2018-05-06T22:57:27.186Z,17.47
2018-05-06T22:59:54.748Z,15.80
2018-05-06T23:02:23.120Z,14.70
2018-05-06T23:04:50.783Z,15.07
2018-05-06T23:07:18.391Z,14.63
2018-05-06T23:09:46.761Z,14.63
2018-05-06T23:12:14.324Z,15.40
2018-05-06T23:14:42.708Z,14.60
2018-05-06T23:17:11.041Z,13.47
2018-05-06T23:19:38.669Z,13.20
2018-05-06T23:22:06.245Z,13.57
2018-05-06T23:24:33.879Z,14.07
2018-05-06T23:27:02.273Z,13.93
2018-05-06T23:29:29.846Z,14.27
2018-05-06T23:31:57.411Z,14.30
2018-05-06T23:34:25.025Z,13.47
2018-05-06T23:36:53.369Z,14.97
2018-05-06T23:39:20.972Z,14.17
2018-05-06T23:41:49.305Z,13.50
2018-05-06T23:44:17.683Z,14.90
2018-05-06T23:46:45.273Z,14.93
2018-05-06T23:49:13.701Z,14.77
2018-05-06T23:51:41.314Z,14.40
2018-05-06T23:54:09.647Z,14.20
2018-05-06T23:56:37.276Z,15.17
2018-05-06T23:59:04.874Z,14.40
